createdAt,value
2019-01-25T00:00:43.456Z,-2.30
2019-01-25T00:03:33.510Z,-2.20
2019-01-25T00:06:16.209Z,-2.20
2019-01-25T00:09:27.049Z,-2.30
2019-01-25T00:12:10.278Z,-2.40
2019-01-25T00:15:00.400Z,-2.60
2019-01-25T00:17:43.422Z,-2.60
2019-01-25T00:20:33.803Z,-2.80
2019-01-25T00:23:16.898Z,-2.80
2019-01-25T00:26:07.497Z,-2.80
2019-01-25T00:28:52.012Z,-2.80
2019-01-25T00:31:41.800Z,-2.80
2019-01-25T00:34:26.202Z,-2.60
2019-01-25T00:37:16.267Z,-2.40
2019-01-25T00:40:05.951Z,-2.30
2019-01-25T00:42:50.940Z,-2.50
2019-01-25T00:45:33.293Z,-2.50
2019-01-25T00:51:49.787Z,-2.50
2019-01-25T00:54:39.597Z,-2.40
2019-01-25T00:57:22.273Z,-2.40
2019-01-25T01:00:31.489Z,-2.50
2019-01-25T01:03:16.268Z,-2.30
2019-01-25T01:06:06.346Z,-2.40
2019-01-25T01:08:49.650Z,-2.30
2019-01-25T01:11:39.611Z,-2.60
2019-01-25T01:14:20.681Z,-2.70
2019-01-25T01:17:10.819Z,-2.80
2019-01-25T01:19:53.609Z,-2.80
2019-01-25T01:22:43.822Z,-2.90
2019-01-25T01:25:28.688Z,-3.00
2019-01-25T01:28:18.477Z,-3.00
2019-01-25T01:31:03.036Z,-2.90
2019-01-25T01:33:53.205Z,-2.90
2019-01-25T01:36:36.650Z,-2.90
2019-01-25T01:39:26.458Z,-3.00
2019-01-25T01:42:09.444Z,-2.80
2019-01-25T01:44:59.525Z,-2.80
2019-01-25T01:47:40.359Z,-2.80
2019-01-25T01:50:30.496Z,-2.60
2019-01-25T01:53:13.815Z,-2.40
2019-01-25T01:56:04.197Z,-2.40
2019-01-25T01:58:48.326Z,-2.20
2019-01-25T02:01:38.127Z,-2.30
2019-01-25T02:04:20.747Z,-2.30
2019-01-25T02:07:10.859Z,-2.30
2019-01-25T02:09:55.128Z,-2.40
2019-01-25T02:15:46.557Z,-2.40
2019-01-25T02:21:38.006Z,-2.60
2019-01-25T02:24:28.181Z,-2.80
2019-01-25T02:27:11.312Z,-2.70
2019-01-25T02:30:01.121Z,-2.60
2019-01-25T02:32:43.505Z,-2.50
2019-01-25T02:35:33.903Z,-2.40
2019-01-25T02:38:18.253Z,-2.30
2019-01-25T02:41:08.062Z,-2.30
2019-01-25T02:43:51.305Z,-2.30
2019-01-25T02:46:41.481Z,-2.20
2019-01-25T02:49:25.908Z,-2.20
2019-01-25T02:52:15.683Z,-2.20
2019-01-25T02:54:58.362Z,-2.00
2019-01-25T02:57:48.118Z,-2.00
2019-01-25T03:00:30.683Z,-2.10
2019-01-25T03:03:20.801Z,-2.00
2019-01-25T03:06:05.688Z,-2.00
2019-01-25T03:08:55.491Z,-2.00
2019-01-25T03:11:38.312Z,-2.20
2019-01-25T03:14:28.488Z,-2.20
2019-01-25T03:17:10.998Z,-2.20
2019-01-25T03:20:01.593Z,-2.00
2019-01-25T03:22:45.993Z,-2.00
2019-01-25T03:25:35.761Z,-2.10
2019-01-25T03:28:19.277Z,-2.20
2019-01-25T03:31:09.075Z,-2.20
2019-01-25T03:33:51.781Z,-2.30
2019-01-25T03:36:41.956Z,-2.20
2019-01-25T03:39:26.758Z,-2.40
2019-01-25T03:42:17.087Z,-2.50
2019-01-25T03:45:00.147Z,-2.50
2019-01-25T03:47:50.057Z,-2.50
2019-01-25T03:51:02.865Z,-2.40
2019-01-25T03:53:52.659Z,-2.30
2019-01-25T03:56:37.674Z,-2.30
2019-01-25T03:59:28.620Z,-2.10
2019-01-25T04:02:11.618Z,-2.10
2019-01-25T04:05:01.753Z,-2.10
2019-01-25T04:07:44.705Z,-2.00
2019-01-25T04:10:34.502Z,-2.20
2019-01-25T04:13:18.659Z,-2.10
2019-01-25T04:16:08.739Z,-2.30
2019-01-25T04:18:53.761Z,-2.50
2019-01-25T04:25:12.829Z,-2.70
2019-01-25T04:27:56.541Z,-2.40
2019-01-25T04:30:40.598Z,-2.40
2019-01-25T04:33:30.367Z,-2.30
2019-01-25T04:36:16.059Z,-2.20
2019-01-25T04:39:26.892Z,-2.10
2019-01-25T04:42:09.799Z,-2.10
2019-01-25T04:44:59.859Z,-2.10
2019-01-25T04:47:42.991Z,-2.00
2019-01-25T04:50:33.436Z,-2.00
2019-01-25T04:53:16.754Z,-1.90
2019-01-25T04:56:06.745Z,-2.20
2019-01-25T04:58:49.718Z,-2.10
2019-01-25T05:01:39.515Z,-2.10
2019-01-25T05:04:22.155Z,-2.10
2019-01-25T05:07:12.308Z,-2.20
2019-01-25T05:09:54.681Z,-2.20
2019-01-25T05:13:05.492Z,-2.50
2019-01-25T05:15:48.591Z,-2.40
2019-01-25T05:18:38.368Z,-2.30
2019-01-25T05:21:23.193Z,-2.20
2019-01-25T05:24:12.962Z,-2.30
2019-01-25T05:26:57.749Z,-2.20
2019-01-25T05:30:08.841Z,-2.10
2019-01-25T05:32:51.492Z,-2.10
2019-01-25T05:35:41.632Z,-2.20
2019-01-25T05:38:24.482Z,-2.10
2019-01-25T05:41:14.253Z,-2.10
2019-01-25T05:43:56.566Z,-2.20
2019-01-25T05:46:46.347Z,-2.10
2019-01-25T05:49:30.703Z,-2.10
2019-01-25T05:55:49.484Z,-1.90
2019-01-25T05:58:39.290Z,-2.00
2019-01-25T06:01:29.128Z,-2.00
2019-01-25T06:04:11.981Z,-1.90
2019-01-25T06:07:01.797Z,-1.90
2019-01-25T06:09:46.692Z,-2.00
2019-01-25T06:12:36.492Z,-2.00
2019-01-25T06:15:19.117Z,-1.90
2019-01-25T06:18:08.923Z,-1.90
2019-01-25T06:20:52.265Z,-1.90
2019-01-25T06:23:42.445Z,-2.00
2019-01-25T06:26:26.448Z,-1.80
2019-01-25T06:29:16.275Z,-1.90
2019-01-25T06:31:59.198Z,-2.00
2019-01-25T06:34:49.158Z,-2.00
2019-01-25T06:37:32.515Z,-2.00
2019-01-25T06:40:15.999Z,-1.90
2019-01-25T06:43:06.071Z,-1.80
2019-01-25T06:45:49.898Z,-1.90
2019-01-25T06:48:40.050Z,-2.00
2019-01-25T06:51:22.556Z,-1.80
2019-01-25T06:54:12.324Z,-1.80
2019-01-25T06:56:54.656Z,-1.90
2019-01-25T06:59:44.783Z,-2.00
2019-01-25T07:02:29.738Z,-2.10
2019-01-25T07:05:19.796Z,-2.10
2019-01-25T07:08:02.695Z,-2.00
2019-01-25T07:14:20.033Z,-1.80
2019-01-25T07:17:10.154Z,-1.90
2019-01-25T07:19:54.684Z,-1.90
2019-01-25T07:22:44.459Z,-1.90
2019-01-25T07:25:28.000Z,-2.00
2019-01-25T07:28:18.074Z,-1.90
2019-01-25T07:31:01.077Z,-1.90
2019-01-25T07:33:50.876Z,-2.00
2019-01-25T07:36:35.865Z,-2.00
2019-01-25T07:39:19.785Z,-1.90
2019-01-25T07:42:09.622Z,-1.90
2019-01-25T07:44:52.348Z,-1.90
2019-01-25T07:47:42.869Z,-1.90
2019-01-25T07:50:25.958Z,-2.00
2019-01-25T07:53:15.825Z,-1.90
2019-01-25T07:55:59.060Z,-1.90
2019-01-25T07:58:48.871Z,-1.90
2019-01-25T08:01:31.267Z,-1.90
2019-01-25T08:04:21.245Z,-2.00
2019-01-25T08:06:51.907Z,-2.10
2019-01-25T08:09:41.748Z,-2.00
2019-01-25T08:12:26.069Z,-2.00
2019-01-25T08:15:36.912Z,-2.00
2019-01-25T08:18:20.176Z,-1.80
2019-01-25T08:21:10.017Z,-1.80
2019-01-25T08:23:52.661Z,-1.90
2019-01-25T08:26:42.473Z,-1.80
2019-01-25T08:29:28.247Z,-1.80
2019-01-25T08:32:16.801Z,-1.80
2019-01-25T08:35:00.735Z,-1.80
2019-01-25T08:37:43.865Z,-1.80
2019-01-25T08:40:33.705Z,-1.80
2019-01-25T08:43:18.672Z,-1.70
2019-01-25T08:46:08.400Z,-1.80
2019-01-25T08:48:50.930Z,-1.70
2019-01-25T08:51:41.191Z,-1.60
2019-01-25T08:54:44.786Z,-1.70
2019-01-25T08:57:34.598Z,-1.60
2019-01-25T09:00:20.314Z,-1.60
2019-01-25T09:03:10.120Z,-1.60
2019-01-25T09:05:52.877Z,-1.60
2019-01-25T09:08:42.642Z,-1.60
2019-01-25T09:11:25.358Z,-1.70
2019-01-25T09:14:15.925Z,-1.70
2019-01-25T09:16:59.189Z,-1.70
2019-01-25T09:19:49.353Z,-1.50
2019-01-25T09:22:31.980Z,-1.40
2019-01-25T09:25:21.773Z,-1.20
2019-01-25T09:28:04.577Z,-1.10
2019-01-25T09:30:54.375Z,-1.00
2019-01-25T09:33:36.760Z,-0.90
2019-01-25T09:36:19.576Z,-0.60
2019-01-25T09:39:09.920Z,-0.80
2019-01-25T09:41:54.569Z,-0.50
2019-01-25T09:44:44.405Z,-0.30
2019-01-25T09:47:27.646Z,-0.10
2019-01-25T09:50:38.653Z,0.00
2019-01-25T09:53:21.707Z,-0.10
2019-01-25T09:55:52.061Z,0.10
2019-01-25T09:58:42.229Z,0.20
2019-01-25T10:01:32.310Z,0.10
2019-01-25T10:04:14.612Z,0.20
2019-01-25T10:06:57.673Z,0.10
2019-01-25T10:09:47.455Z,0.10
2019-01-25T10:12:34.864Z,0.20
2019-01-25T10:15:43.505Z,0.20
2019-01-25T10:18:27.742Z,0.10
2019-01-25T10:21:17.507Z,0.10
2019-01-25T10:24:00.179Z,0.00
2019-01-25T10:26:50.247Z,0.10
2019-01-25T10:29:32.894Z,0.30
2019-01-25T10:32:22.697Z,0.30
2019-01-25T10:35:07.202Z,0.10
2019-01-25T10:37:56.990Z,0.20
2019-01-25T10:40:39.708Z,0.20
2019-01-25T10:43:29.506Z,0.20
2019-01-25T10:46:14.194Z,0.10
2019-01-25T10:49:03.953Z,0.00
2019-01-25T10:51:44.940Z,0.00
2019-01-25T10:58:02.467Z,0.00
2019-01-25T11:00:52.547Z,-0.10
2019-01-25T11:03:42.381Z,-0.20
2019-01-25T11:06:27.673Z,-0.40
2019-01-25T11:09:10.426Z,-0.80
2019-01-25T11:12:00.557Z,-0.80
2019-01-25T11:14:43.847Z,-0.70
2019-01-25T11:17:36.518Z,-0.70
2019-01-25T11:20:38.135Z,-0.60
2019-01-25T11:26:30.068Z,-0.50
2019-01-25T11:29:20.142Z,-0.20
2019-01-25T11:32:02.937Z,-0.20
2019-01-25T11:38:19.685Z,0.20
2019-01-25T11:41:09.479Z,0.40
2019-01-25T11:43:59.269Z,0.30
2019-01-25T11:46:42.557Z,0.10
2019-01-25T11:49:32.639Z,0.10
2019-01-25T11:52:15.659Z,-0.10
2019-01-25T11:55:26.765Z,-0.30
2019-01-25T11:58:09.590Z,-0.40
2019-01-25T12:01:18.480Z,-0.40
2019-01-25T12:04:01.165Z,-0.40
2019-01-25T12:06:50.984Z,-0.40
2019-01-25T12:09:35.072Z,-0.20
2019-01-25T12:12:25.193Z,-0.20
2019-01-25T12:15:10.005Z,-0.10
2019-01-25T12:17:59.837Z,0.00
2019-01-25T12:20:43.015Z,0.10
2019-01-25T12:23:33.160Z,0.10
2019-01-25T12:26:16.059Z,0.30
2019-01-25T12:29:06.525Z,0.30
2019-01-25T12:31:49.895Z,0.10
2019-01-25T12:34:39.690Z,0.30
2019-01-25T12:37:24.053Z,0.30
2019-01-25T12:40:35.168Z,0.30
2019-01-25T12:43:23.965Z,0.20
2019-01-25T12:46:10.791Z,0.20
2019-01-25T12:48:55.476Z,-0.10
2019-01-25T12:52:08.313Z,0.00
2019-01-25T12:55:08.934Z,0.00
2019-01-25T13:01:07.408Z,-0.30
2019-01-25T13:03:57.215Z,-0.30
2019-01-25T13:06:38.169Z,-0.30
2019-01-25T13:09:21.654Z,-0.40
2019-01-25T13:15:38.599Z,-0.60
2019-01-25T13:18:28.667Z,-0.30
2019-01-25T13:21:13.512Z,-0.30
2019-01-25T13:24:03.634Z,-0.40
2019-01-25T13:26:46.453Z,-0.40
2019-01-25T13:29:36.547Z,-0.40
2019-01-25T13:32:19.008Z,-0.40
2019-01-25T13:35:10.030Z,-0.40
2019-01-25T13:38:12.832Z,-0.30
2019-01-25T13:41:02.619Z,-0.30
2019-01-25T13:43:45.093Z,-0.20
2019-01-25T13:46:35.145Z,-0.10
2019-01-25T13:49:19.526Z,-0.20
2019-01-25T13:52:09.294Z,0.00
2019-01-25T13:54:52.263Z,0.10
2019-01-25T13:57:42.028Z,0.10
2019-01-25T14:00:27.126Z,0.00
2019-01-25T14:03:16.901Z,-0.10
2019-01-25T14:05:59.652Z,0.00
2019-01-25T14:08:49.748Z,0.10
2019-01-25T14:11:32.323Z,0.10
2019-01-25T14:14:22.354Z,0.10
2019-01-25T14:17:05.151Z,0.10
2019-01-25T14:19:55.020Z,0.20
2019-01-25T14:22:37.975Z,0.30
2019-01-25T14:25:27.739Z,0.20
2019-01-25T14:28:08.508Z,0.00
2019-01-25T14:30:58.627Z,0.00
2019-01-25T14:33:42.729Z,-0.10
2019-01-25T14:39:59.286Z,-0.30
2019-01-25T14:42:49.391Z,-0.40
2019-01-25T14:45:32.816Z,-0.60
2019-01-25T14:48:22.608Z,-0.60
2019-01-25T14:51:03.367Z,-0.50
2019-01-25T14:53:53.415Z,-0.50
2019-01-25T14:56:36.697Z,-0.50
2019-01-25T14:59:26.492Z,-0.50
2019-01-25T15:02:08.861Z,-0.60
2019-01-25T15:04:58.970Z,-0.60
2019-01-25T15:07:43.747Z,-0.60
2019-01-25T15:14:02.446Z,-0.70
2019-01-25T15:16:51.993Z,-0.80
2019-01-25T15:19:41.822Z,-1.00
2019-01-25T15:22:24.495Z,-0.80
2019-01-25T15:25:14.307Z,-0.90
2019-01-25T15:27:56.919Z,-0.80
2019-01-25T15:30:47.117Z,-0.80
2019-01-25T15:33:30.256Z,-1.00
2019-01-25T15:36:20.077Z,-1.00
2019-01-25T15:39:01.066Z,-1.00
2019-01-25T15:41:44.480Z,-1.00
2019-01-25T15:44:36.270Z,-1.10
2019-01-25T15:47:36.280Z,-1.10
2019-01-25T15:50:47.367Z,-1.10
2019-01-25T15:53:29.804Z,-1.10
2019-01-25T15:59:33.513Z,-1.30
2019-01-25T16:02:16.456Z,-1.30
2019-01-25T16:08:35.461Z,-1.30
2019-01-25T16:11:25.645Z,-1.10
2019-01-25T16:14:08.880Z,-1.10
2019-01-25T16:16:58.670Z,-1.30
2019-01-25T16:19:41.359Z,-1.30
2019-01-25T16:22:31.413Z,-1.10
2019-01-25T16:25:17.996Z,-1.10
2019-01-25T16:28:08.092Z,-1.20
2019-01-25T16:30:50.823Z,-1.10
2019-01-25T16:34:00.864Z,-1.10
2019-01-25T16:36:45.739Z,-1.20
2019-01-25T16:39:35.856Z,-1.30
2019-01-25T16:42:18.501Z,-1.20
2019-01-25T16:45:28.989Z,-1.10
2019-01-25T16:48:13.119Z,-1.10
2019-01-25T16:51:03.174Z,-1.10
2019-01-25T16:53:46.213Z,-1.20
2019-01-25T16:56:35.987Z,-1.10
2019-01-25T16:59:18.960Z,-1.10
2019-01-25T17:05:11.272Z,-1.10
2019-01-25T17:08:01.358Z,-1.00
2019-01-25T17:10:45.860Z,-1.20
2019-01-25T17:13:36.244Z,-1.30
2019-01-25T17:16:19.305Z,-1.30
2019-01-25T17:19:09.447Z,-1.20
2019-01-25T17:21:52.429Z,-1.20
2019-01-25T17:24:42.555Z,-1.10
2019-01-25T17:27:24.917Z,-1.10
2019-01-25T17:30:35.728Z,-1.00
2019-01-25T17:33:19.039Z,-1.00
2019-01-25T17:39:14.059Z,-0.90
2019-01-25T17:42:04.511Z,-1.00
2019-01-25T17:44:47.082Z,-1.00
2019-01-25T17:47:37.218Z,-0.90
2019-01-25T17:50:19.583Z,-0.90
2019-01-25T17:53:09.380Z,-1.00
2019-01-25T17:55:52.651Z,-0.90
2019-01-25T17:58:42.822Z,-1.00
2019-01-25T18:01:25.552Z,-1.00
2019-01-25T18:04:15.962Z,-1.10
2019-01-25T18:06:59.073Z,-1.00
2019-01-25T18:09:48.862Z,-1.10
2019-01-25T18:12:31.194Z,-1.10
2019-01-25T18:15:21.333Z,-1.10
2019-01-25T18:18:03.920Z,-1.00
2019-01-25T18:20:53.719Z,-1.00
2019-01-25T18:23:37.020Z,-0.90
2019-01-25T18:26:26.834Z,-1.00
2019-01-25T18:29:11.142Z,-0.90
2019-01-25T18:35:43.565Z,-1.00
2019-01-25T18:38:33.900Z,-1.00
2019-01-25T18:41:16.468Z,-1.00
2019-01-25T18:44:06.314Z,-1.00
2019-01-25T18:46:48.920Z,-1.10
2019-01-25T18:49:38.712Z,-1.10
2019-01-25T18:52:21.192Z,-1.10
2019-01-25T18:55:30.662Z,-1.10
2019-01-25T18:58:13.464Z,-0.90
2019-01-25T19:01:03.571Z,-0.90
2019-01-25T19:03:46.043Z,-0.80
2019-01-25T19:10:30.486Z,-0.90
2019-01-25T19:13:13.608Z,-0.80
2019-01-25T19:16:03.421Z,-0.90
2019-01-25T19:18:48.189Z,-0.80
2019-01-25T19:21:38.020Z,-1.00
2019-01-25T19:24:28.168Z,-1.00
2019-01-25T19:27:37.339Z,-0.80
2019-01-25T19:30:21.269Z,-0.80
2019-01-25T19:33:11.465Z,-0.90
2019-01-25T19:35:54.438Z,-0.90
2019-01-25T19:38:44.238Z,-0.90
2019-01-25T19:41:28.511Z,-0.90
2019-01-25T19:44:18.872Z,-0.90
2019-01-25T19:47:10.338Z,-0.90
2019-01-25T19:49:53.025Z,-1.00
2019-01-25T19:52:35.739Z,-1.00
2019-01-25T19:55:47.341Z,-0.80
2019-01-25T19:58:37.139Z,-0.80
2019-01-25T20:01:21.461Z,-0.90
2019-01-25T20:04:11.659Z,-0.70
2019-01-25T20:06:56.581Z,-0.80
2019-01-25T20:09:46.731Z,-0.80
2019-01-25T20:12:27.480Z,-0.80
2019-01-25T20:15:19.247Z,-1.00
2019-01-25T20:18:03.702Z,-1.00
2019-01-25T20:20:55.533Z,-1.00
2019-01-25T20:23:38.552Z,-1.00
2019-01-25T20:26:28.401Z,-1.10
2019-01-25T20:29:11.462Z,-1.10
2019-01-25T20:32:01.627Z,-1.10
2019-01-25T20:34:46.680Z,-1.20
2019-01-25T20:37:36.499Z,-1.20
2019-01-25T20:40:26.575Z,-1.30
2019-01-25T20:43:09.276Z,-1.30
2019-01-25T20:45:59.690Z,-1.20
2019-01-25T20:48:42.788Z,-1.20
2019-01-25T20:51:32.886Z,-1.20
2019-01-25T20:54:16.246Z,-1.20
2019-01-25T20:56:58.763Z,-1.30
2019-01-25T20:59:48.593Z,-1.30
2019-01-25T21:05:40.343Z,-1.20
2019-01-25T21:08:23.190Z,-1.30
2019-01-25T21:11:13.322Z,-1.20
2019-01-25T21:13:56.076Z,-1.30
2019-01-25T21:17:04.989Z,-1.30
2019-01-25T21:19:48.456Z,-1.30
2019-01-25T21:22:38.296Z,-1.30
2019-01-25T21:25:21.223Z,-1.30
2019-01-25T21:28:11.294Z,-1.40
2019-01-25T21:30:53.904Z,-1.30
2019-01-25T21:33:43.707Z,-1.10
2019-01-25T21:36:26.809Z,-1.10
2019-01-25T21:39:16.654Z,-1.10
2019-01-25T21:41:59.062Z,-1.10
2019-01-25T21:44:49.131Z,-1.00
2019-01-25T21:47:32.312Z,-1.20
2019-01-25T21:50:43.123Z,-1.10
2019-01-25T21:53:28.050Z,-1.10
2019-01-25T21:56:17.846Z,-1.10
2019-01-25T22:02:15.475Z,-1.10
2019-01-25T22:05:26.617Z,-1.20
2019-01-25T22:08:09.089Z,-1.00
2019-01-25T22:10:58.962Z,-1.00
2019-01-25T22:13:42.068Z,-1.20
2019-01-25T22:16:24.771Z,-1.20
2019-01-25T22:22:09.575Z,-1.20
2019-01-25T22:24:59.416Z,-1.10
2019-01-25T22:27:42.763Z,-1.30
2019-01-25T22:30:32.592Z,-1.20
2019-01-25T22:33:17.007Z,-1.10
2019-01-25T22:35:59.488Z,-1.20
2019-01-25T22:38:49.278Z,-1.10
2019-01-25T22:41:32.657Z,-1.20
2019-01-25T22:44:22.719Z,-1.20
2019-01-25T22:47:05.826Z,-1.10
2019-01-25T22:53:20.520Z,-1.10
2019-01-25T22:56:10.663Z,-1.20
2019-01-25T22:58:55.220Z,-1.00
2019-01-25T23:01:45.722Z,-1.10
2019-01-25T23:04:56.588Z,-1.10
2019-01-25T23:07:39.601Z,-1.20
2019-01-25T23:10:29.426Z,-1.00
2019-01-25T23:13:13.744Z,-0.90
2019-01-25T23:16:06.517Z,-0.90
2019-01-25T23:18:55.397Z,-1.00
2019-01-25T23:21:45.536Z,-0.90
2019-01-25T23:24:28.713Z,-1.00
2019-01-25T23:30:33.661Z,-1.20
2019-01-25T23:33:17.970Z,-1.10
2019-01-25T23:36:08.058Z,-1.20
2019-01-25T23:38:58.125Z,-1.00
2019-01-25T23:41:40.742Z,-1.10
2019-01-25T23:44:30.781Z,-1.10
2019-01-25T23:47:13.625Z,-1.20
2019-01-25T23:53:33.113Z,-1.20
2019-01-25T23:56:22.937Z,-1.20
2019-01-25T23:59:05.350Z,-1.30
